createdAt,value
2022-12-03T00:01:13.469Z,3.30
2022-12-03T00:04:15.414Z,3.20
2022-12-03T00:07:17.373Z,3.20
2022-12-03T00:10:19.673Z,3.20
2022-12-03T00:13:21.625Z,3.20
2022-12-03T00:16:23.782Z,3.20
2022-12-03T00:19:25.936Z,3.20
2022-12-03T00:22:28.320Z,3.20
2022-12-03T00:25:30.339Z,3.20
2022-12-03T00:28:32.415Z,3.20
2022-12-03T00:31:34.459Z,3.20
2022-12-03T00:34:36.500Z,3.20
2022-12-03T00:37:38.586Z,3.20
2022-12-03T00:40:41.188Z,3.20
2022-12-03T00:43:43.234Z,3.20
2022-12-03T00:46:45.300Z,3.20
2022-12-03T00:49:47.666Z,3.10
2022-12-03T00:52:50.026Z,3.20
2022-12-03T00:55:52.088Z,3.10
2022-12-03T00:58:54.221Z,3.10
2022-12-03T01:01:56.540Z,3.10
2022-12-03T01:04:58.750Z,3.10
2022-12-03T01:08:01.009Z,3.10
2022-12-03T01:11:03.387Z,3.10
2022-12-03T01:14:07.092Z,3.10
2022-12-03T01:17:12.390Z,3.10
2022-12-03T01:20:18.784Z,3.10
2022-12-03T01:23:20.945Z,3.10
2022-12-03T01:26:23.336Z,3.10
2022-12-03T01:29:25.557Z,3.10
2022-12-03T01:32:27.521Z,3.10
2022-12-03T01:35:29.581Z,3.10
2022-12-03T01:38:31.815Z,3.10
2022-12-03T01:41:35.720Z,3.10
2022-12-03T01:44:40.036Z,3.10
2022-12-03T01:47:42.110Z,3.10
2022-12-03T01:50:45.512Z,3.10
2022-12-03T01:53:47.834Z,3.10
2022-12-03T01:56:50.057Z,3.10
2022-12-03T01:59:53.928Z,3.10
2022-12-03T02:03:01.805Z,3.10
2022-12-03T02:06:04.034Z,3.10
2022-12-03T02:09:08.609Z,3.10
2022-12-03T02:12:10.959Z,3.10
2022-12-03T02:15:13.205Z,3.10
2022-12-03T02:18:15.433Z,3.10
2022-12-03T02:21:23.210Z,3.10
2022-12-03T02:24:51.748Z,3.10
2022-12-03T02:27:55.471Z,3.20
2022-12-03T02:30:57.611Z,3.20
2022-12-03T02:33:59.659Z,3.10
2022-12-03T02:37:03.212Z,3.10
2022-12-03T02:40:10.466Z,3.20
2022-12-03T02:43:15.006Z,3.20
2022-12-03T02:46:17.093Z,3.20
2022-12-03T02:49:19.278Z,3.20
2022-12-03T02:52:21.845Z,3.20
2022-12-03T02:55:25.391Z,3.20
2022-12-03T02:58:30.831Z,3.20
2022-12-03T03:01:34.938Z,3.10
2022-12-03T03:04:37.405Z,3.10
2022-12-03T03:07:40.681Z,3.20
2022-12-03T03:10:43.843Z,3.20
2022-12-03T03:13:46.479Z,3.20
2022-12-03T03:16:55.983Z,3.20
2022-12-03T03:19:58.220Z,3.20
2022-12-03T03:23:26.544Z,3.20
2022-12-03T03:26:28.647Z,3.20
2022-12-03T03:29:32.231Z,3.20
2022-12-03T03:32:34.880Z,3.20
2022-12-03T03:35:37.876Z,3.20
2022-12-03T03:38:40.891Z,3.20
2022-12-03T03:41:45.309Z,3.20
2022-12-03T03:44:48.207Z,3.10
2022-12-03T03:47:50.259Z,3.20
2022-12-03T03:50:52.570Z,3.20
2022-12-03T03:53:54.963Z,3.20
2022-12-03T03:56:57.412Z,3.20
2022-12-03T04:00:00.039Z,3.20
2022-12-03T04:03:04.034Z,3.20
2022-12-03T04:06:06.504Z,3.20
2022-12-03T04:09:08.462Z,3.20
2022-12-03T04:12:31.433Z,3.20
2022-12-03T04:15:33.735Z,3.30
2022-12-03T04:18:44.997Z,3.30
2022-12-03T04:22:05.542Z,3.20
2022-12-03T04:25:27.926Z,3.20
2022-12-03T04:28:48.645Z,3.20
2022-12-03T04:32:09.647Z,3.20
2022-12-03T04:35:30.479Z,3.20
2022-12-03T04:38:32.621Z,3.20
2022-12-03T04:41:34.744Z,3.20
2022-12-03T04:44:36.804Z,3.20
2022-12-03T04:47:40.140Z,3.20
2022-12-03T04:50:42.312Z,3.20
2022-12-03T04:53:46.350Z,3.20
2022-12-03T04:56:48.559Z,3.20
2022-12-03T04:59:50.546Z,3.20
2022-12-03T05:02:52.792Z,3.20
2022-12-03T05:05:54.861Z,3.20
2022-12-03T05:08:56.884Z,3.20
2022-12-03T05:11:58.996Z,3.20
2022-12-03T05:15:01.743Z,3.30
2022-12-03T05:18:03.815Z,3.30
2022-12-03T05:21:05.933Z,3.20
2022-12-03T05:24:08.012Z,3.20
2022-12-03T05:27:09.994Z,3.20
2022-12-03T05:30:12.495Z,3.20
2022-12-03T05:33:14.726Z,3.20
2022-12-03T05:36:16.736Z,3.20
2022-12-03T05:39:18.716Z,3.20
2022-12-03T05:42:39.425Z,3.20
2022-12-03T05:45:43.075Z,3.20
2022-12-03T05:48:48.357Z,3.20
2022-12-03T05:51:53.726Z,3.20
2022-12-03T05:55:00.018Z,3.20
2022-12-03T05:58:02.108Z,3.20
2022-12-03T06:01:04.765Z,3.20
2022-12-03T06:04:06.917Z,3.20
2022-12-03T06:07:13.816Z,3.20
2022-12-03T06:10:20.441Z,3.20
2022-12-03T06:13:22.385Z,3.20
2022-12-03T06:16:24.445Z,3.20
2022-12-03T06:19:26.496Z,3.20
2022-12-03T06:22:28.789Z,3.20
2022-12-03T06:25:30.871Z,3.20
2022-12-03T06:28:32.938Z,3.20
2022-12-03T06:31:34.981Z,3.20
2022-12-03T06:34:37.094Z,3.30
2022-12-03T06:37:39.149Z,3.20
2022-12-03T06:40:41.157Z,3.30
2022-12-03T06:43:43.284Z,3.20
2022-12-03T06:46:45.492Z,3.20
2022-12-03T06:49:47.684Z,3.30
2022-12-03T06:52:49.734Z,3.30
2022-12-03T06:55:51.681Z,3.30
2022-12-03T06:58:54.058Z,3.20
2022-12-03T07:01:56.086Z,3.30
2022-12-03T07:04:58.926Z,3.30
2022-12-03T07:08:01.170Z,3.30
2022-12-03T07:11:03.241Z,3.30
2022-12-03T07:14:07.084Z,3.30
2022-12-03T07:17:09.127Z,3.40
2022-12-03T07:20:11.679Z,3.40
2022-12-03T07:23:13.690Z,3.40
2022-12-03T07:26:15.745Z,3.40
2022-12-03T07:29:17.833Z,3.50
2022-12-03T07:32:19.852Z,3.50
2022-12-03T07:35:22.107Z,3.50
2022-12-03T07:38:24.084Z,3.50
2022-12-03T07:41:26.106Z,3.60
2022-12-03T07:44:28.496Z,3.60
2022-12-03T07:47:30.582Z,3.60
2022-12-03T07:50:32.680Z,3.60
2022-12-03T07:53:36.222Z,3.70
2022-12-03T07:56:38.204Z,3.70
2022-12-03T07:59:40.180Z,3.80
2022-12-03T08:02:42.464Z,3.80
2022-12-03T08:05:44.548Z,3.80
2022-12-03T08:08:46.935Z,3.90
2022-12-03T08:11:49.613Z,3.90
2022-12-03T08:14:52.004Z,4.00
2022-12-03T08:17:59.100Z,4.10
2022-12-03T08:21:01.090Z,4.10
2022-12-03T08:24:19.569Z,4.20
2022-12-03T08:27:23.899Z,4.20
2022-12-03T08:30:26.104Z,4.30
2022-12-03T08:33:33.621Z,4.40
2022-12-03T08:36:36.505Z,4.40
2022-12-03T08:39:45.923Z,4.50
2022-12-03T08:42:48.047Z,4.60
2022-12-03T08:45:52.184Z,4.70
2022-12-03T08:48:54.382Z,4.80
2022-12-03T08:52:00.487Z,4.90
2022-12-03T08:55:30.970Z,4.90
2022-12-03T08:58:48.012Z,4.90
2022-12-03T09:01:51.539Z,4.90
2022-12-03T09:04:54.863Z,5.00
2022-12-03T09:07:57.248Z,5.10
2022-12-03T09:10:59.237Z,5.20
2022-12-03T09:14:01.271Z,5.20
2022-12-03T09:17:03.734Z,5.30
2022-12-03T09:20:06.515Z,5.20
2022-12-03T09:23:08.903Z,5.20
2022-12-03T09:26:10.891Z,5.20
2022-12-03T09:29:13.526Z,5.20
2022-12-03T09:32:18.549Z,5.20
2022-12-03T09:35:20.983Z,5.20
2022-12-03T09:38:22.953Z,5.10
2022-12-03T09:41:26.199Z,5.00
2022-12-03T09:44:33.617Z,5.00
2022-12-03T09:47:35.658Z,5.00
2022-12-03T09:50:40.939Z,5.00
2022-12-03T09:53:43.071Z,5.00
2022-12-03T09:56:45.048Z,5.00
2022-12-03T09:59:47.641Z,5.00
2022-12-03T10:02:52.204Z,5.10
2022-12-03T10:05:54.977Z,5.10
2022-12-03T10:08:57.460Z,5.20
2022-12-03T10:12:00.179Z,5.20
2022-12-03T10:15:02.320Z,5.20
2022-12-03T10:18:19.411Z,5.20
2022-12-03T10:21:32.853Z,5.30
2022-12-03T10:24:36.248Z,5.30
2022-12-03T10:27:39.190Z,5.30
2022-12-03T10:30:55.424Z,5.30
2022-12-03T10:33:58.432Z,5.30
2022-12-03T10:37:14.203Z,5.30
2022-12-03T10:40:25.677Z,5.50
2022-12-03T10:43:27.675Z,5.60
2022-12-03T10:46:29.794Z,5.60
2022-12-03T10:49:31.910Z,5.60
2022-12-03T10:52:33.996Z,5.70
2022-12-03T10:55:39.791Z,5.80
2022-12-03T10:58:42.498Z,5.90
2022-12-03T11:01:45.162Z,5.90
2022-12-03T11:04:47.752Z,5.90
2022-12-03T11:07:50.140Z,5.70
2022-12-03T11:11:16.950Z,5.60
2022-12-03T11:14:56.844Z,5.50
2022-12-03T11:17:59.415Z,5.40
2022-12-03T11:21:16.654Z,5.40
2022-12-03T11:24:20.835Z,5.30
2022-12-03T11:27:22.890Z,5.30
2022-12-03T11:30:50.900Z,5.40
2022-12-03T11:34:18.622Z,5.40
2022-12-03T11:37:20.618Z,5.60
2022-12-03T11:40:22.595Z,5.70
2022-12-03T11:43:52.372Z,5.60
2022-12-03T11:46:55.661Z,5.60
2022-12-03T11:49:58.101Z,5.60
2022-12-03T11:53:01.997Z,5.50
2022-12-03T11:56:09.189Z,5.40
2022-12-03T11:59:12.914Z,5.40
2022-12-03T12:02:21.288Z,5.40
2022-12-03T12:05:29.740Z,5.30
2022-12-03T12:08:33.259Z,5.20
2022-12-03T12:11:37.529Z,5.20
2022-12-03T12:14:39.534Z,5.20
2022-12-03T12:17:41.554Z,5.10
2022-12-03T12:20:43.568Z,5.10
2022-12-03T12:23:45.632Z,5.10
2022-12-03T12:26:51.617Z,5.10
2022-12-03T12:29:59.489Z,5.10
2022-12-03T12:33:11.288Z,5.20
2022-12-03T12:36:13.365Z,5.20
2022-12-03T12:39:16.217Z,5.30
2022-12-03T12:42:31.823Z,5.30
2022-12-03T12:45:36.570Z,5.30
2022-12-03T12:48:39.393Z,5.40
2022-12-03T12:51:45.349Z,5.30
2022-12-03T12:54:47.400Z,5.40
2022-12-03T12:57:49.414Z,5.30
2022-12-03T13:00:54.575Z,5.20
2022-12-03T13:03:57.206Z,5.30
2022-12-03T13:06:59.973Z,5.30
2022-12-03T13:10:24.423Z,5.30
2022-12-03T13:13:43.965Z,5.30
2022-12-03T13:16:47.942Z,5.40
2022-12-03T13:19:58.190Z,5.30
2022-12-03T13:23:39.970Z,5.30
2022-12-03T13:26:41.982Z,5.30
2022-12-03T13:30:01.008Z,5.40
2022-12-03T13:33:16.035Z,5.40
2022-12-03T13:36:21.099Z,5.40
2022-12-03T13:39:33.473Z,5.30
2022-12-03T13:42:39.471Z,5.30
2022-12-03T13:45:47.271Z,5.30
2022-12-03T13:48:49.381Z,5.30
2022-12-03T13:51:51.700Z,5.30
2022-12-03T13:54:56.213Z,5.30
2022-12-03T13:57:58.765Z,5.30
2022-12-03T14:01:01.005Z,5.30
2022-12-03T14:04:03.891Z,5.30
2022-12-03T14:07:06.311Z,5.20
2022-12-03T14:10:11.436Z,5.20
2022-12-03T14:13:13.443Z,5.20
2022-12-03T14:16:15.422Z,5.20
2022-12-03T14:19:17.627Z,5.10
2022-12-03T14:22:23.358Z,5.10
2022-12-03T14:25:25.404Z,5.00
2022-12-03T14:28:27.565Z,5.00
2022-12-03T14:31:30.248Z,5.00
2022-12-03T14:34:32.369Z,4.90
2022-12-03T14:37:34.378Z,5.00
2022-12-03T14:40:36.397Z,4.90
2022-12-03T14:43:38.476Z,4.90
2022-12-03T14:46:40.433Z,4.90
2022-12-03T14:49:42.808Z,4.90
2022-12-03T14:52:44.875Z,4.90
2022-12-03T14:55:48.212Z,4.90
2022-12-03T14:58:51.234Z,4.90
2022-12-03T15:01:53.909Z,4.80
2022-12-03T15:04:56.018Z,4.80
2022-12-03T15:07:58.116Z,4.80
2022-12-03T15:11:00.351Z,4.80
2022-12-03T15:14:02.355Z,4.80
2022-12-03T15:17:04.459Z,4.80
2022-12-03T15:20:07.311Z,4.70
2022-12-03T15:23:14.032Z,4.70
2022-12-03T15:26:16.397Z,4.70
2022-12-03T15:29:19.772Z,4.70
2022-12-03T15:32:22.107Z,4.70
2022-12-03T15:35:24.492Z,4.60
2022-12-03T15:38:26.639Z,4.60
2022-12-03T15:41:31.507Z,4.60
2022-12-03T15:44:33.556Z,4.60
2022-12-03T15:47:35.540Z,4.60
2022-12-03T15:50:40.241Z,4.60
2022-12-03T15:53:42.817Z,4.60
2022-12-03T15:56:44.891Z,4.60
2022-12-03T15:59:47.341Z,4.60
2022-12-03T16:02:53.087Z,4.60
2022-12-03T16:05:55.359Z,4.60
2022-12-03T16:08:57.445Z,4.60
2022-12-03T16:11:59.501Z,4.50
2022-12-03T16:15:01.444Z,4.50
2022-12-03T16:18:03.824Z,4.50
2022-12-03T16:21:05.885Z,4.60
2022-12-03T16:24:07.983Z,4.60
2022-12-03T16:27:10.026Z,4.60
2022-12-03T16:30:12.644Z,4.60
2022-12-03T16:33:14.696Z,4.50
2022-12-03T16:36:16.821Z,4.50
2022-12-03T16:39:19.728Z,4.50
2022-12-03T16:42:22.612Z,4.50
2022-12-03T16:45:51.637Z,4.50
2022-12-03T16:48:56.527Z,4.50
2022-12-03T16:51:58.996Z,4.50
2022-12-03T16:55:01.592Z,4.50
2022-12-03T16:58:03.853Z,4.50
2022-12-03T17:01:06.731Z,4.60
2022-12-03T17:04:08.874Z,4.50
2022-12-03T17:07:11.214Z,4.60
2022-12-03T17:10:13.454Z,4.60
2022-12-03T17:13:15.736Z,4.50
2022-12-03T17:16:17.814Z,4.50
2022-12-03T17:19:19.838Z,4.50
2022-12-03T17:22:21.913Z,4.50
2022-12-03T17:25:25.510Z,4.50
2022-12-03T17:28:27.647Z,4.40
2022-12-03T17:31:29.804Z,4.40
2022-12-03T17:34:31.941Z,4.50
2022-12-03T17:37:34.441Z,4.50
2022-12-03T17:40:36.467Z,4.40
2022-12-03T17:43:38.456Z,4.50
2022-12-03T17:46:40.692Z,4.50
2022-12-03T17:49:42.827Z,4.50
2022-12-03T17:52:44.881Z,4.50
2022-12-03T17:55:47.076Z,4.50
2022-12-03T17:58:49.158Z,4.50
2022-12-03T18:01:51.823Z,4.50
2022-12-03T18:04:54.176Z,4.60
2022-12-03T18:07:56.364Z,4.60
2022-12-03T18:10:58.521Z,4.60
2022-12-03T18:14:01.445Z,4.60
2022-12-03T18:17:03.600Z,4.60
2022-12-03T18:20:06.637Z,4.60
2022-12-03T18:23:08.812Z,4.50
2022-12-03T18:26:11.250Z,4.60
2022-12-03T18:29:13.288Z,4.60
2022-12-03T18:32:28.164Z,4.60
2022-12-03T18:35:31.735Z,4.60
2022-12-03T18:38:34.371Z,4.60
2022-12-03T18:41:37.259Z,4.60
2022-12-03T18:44:42.684Z,4.60
2022-12-03T18:47:47.781Z,4.60
2022-12-03T18:50:50.455Z,4.60
2022-12-03T18:53:52.638Z,4.60
2022-12-03T18:56:54.692Z,4.60
2022-12-03T18:59:57.743Z,4.60
2022-12-03T19:03:04.414Z,4.60
2022-12-03T19:06:18.606Z,4.60
2022-12-03T19:09:21.359Z,4.60
2022-12-03T19:12:24.166Z,4.60
2022-12-03T19:15:26.583Z,4.60
2022-12-03T19:18:29.610Z,4.70
2022-12-03T19:21:33.829Z,4.70
2022-12-03T19:24:36.201Z,4.60
2022-12-03T19:27:38.235Z,4.60
2022-12-03T19:30:40.719Z,4.60
2022-12-03T19:33:44.127Z,4.70
2022-12-03T19:36:47.526Z,4.70
2022-12-03T19:39:58.543Z,4.70
2022-12-03T19:43:00.909Z,4.70
2022-12-03T19:46:22.037Z,4.70
2022-12-03T19:49:25.349Z,4.70
2022-12-03T19:52:30.961Z,4.70
2022-12-03T19:55:35.412Z,4.70
2022-12-03T19:58:39.255Z,4.70
2022-12-03T20:01:43.291Z,4.70
2022-12-03T20:04:45.934Z,4.70
2022-12-03T20:07:48.584Z,4.70
2022-12-03T20:10:51.057Z,4.70
2022-12-03T20:13:56.079Z,4.70
2022-12-03T20:16:58.649Z,4.70
2022-12-03T20:20:01.157Z,4.70
2022-12-03T20:23:03.740Z,4.70
2022-12-03T20:26:10.972Z,4.70
2022-12-03T20:29:14.338Z,4.70
2022-12-03T20:32:16.845Z,4.70
2022-12-03T20:35:19.429Z,4.70
2022-12-03T20:38:22.977Z,4.70
2022-12-03T20:41:25.473Z,4.70
2022-12-03T20:44:28.056Z,4.70
2022-12-03T20:47:30.473Z,4.70
2022-12-03T20:50:33.511Z,4.70
2022-12-03T20:53:37.442Z,4.80
2022-12-03T20:56:39.979Z,4.70
2022-12-03T20:59:42.592Z,4.80
2022-12-03T21:02:45.620Z,4.80
2022-12-03T21:05:48.435Z,4.80
2022-12-03T21:08:53.674Z,4.80
2022-12-03T21:11:56.172Z,4.80
2022-12-03T21:14:58.805Z,4.80
2022-12-03T21:18:01.041Z,4.80
2022-12-03T21:21:03.559Z,4.80
2022-12-03T21:24:06.016Z,4.80
2022-12-03T21:27:08.130Z,4.80
2022-12-03T21:30:10.462Z,4.80
2022-12-03T21:33:12.876Z,4.80
2022-12-03T21:36:16.914Z,4.70
2022-12-03T21:39:19.423Z,4.70
2022-12-03T21:42:36.534Z,4.80
2022-12-03T21:45:42.894Z,4.80
2022-12-03T21:48:45.549Z,4.80
2022-12-03T21:51:47.931Z,4.80
2022-12-03T21:54:52.616Z,4.80
2022-12-03T21:57:54.574Z,4.80
2022-12-03T22:00:56.676Z,4.80
2022-12-03T22:03:58.692Z,4.80
2022-12-03T22:07:00.675Z,4.80
2022-12-03T22:10:04.310Z,4.80
2022-12-03T22:13:06.503Z,4.80
2022-12-03T22:16:11.171Z,4.70
2022-12-03T22:19:13.217Z,4.70
2022-12-03T22:22:15.207Z,4.70
2022-12-03T22:25:17.368Z,4.80
2022-12-03T22:28:19.371Z,4.70
2022-12-03T22:31:21.422Z,4.70
2022-12-03T22:34:23.560Z,4.70
2022-12-03T22:37:25.585Z,4.80
2022-12-03T22:40:27.688Z,4.70
2022-12-03T22:43:29.774Z,4.80
2022-12-03T22:46:31.975Z,4.80
2022-12-03T22:49:34.273Z,4.80
2022-12-03T22:52:36.325Z,4.80
2022-12-03T22:55:38.961Z,4.80
2022-12-03T22:58:41.280Z,4.80
2022-12-03T23:01:43.317Z,4.80
2022-12-03T23:04:45.603Z,4.80
2022-12-03T23:07:47.685Z,4.80
2022-12-03T23:10:52.338Z,4.80
2022-12-03T23:13:54.462Z,4.90
2022-12-03T23:16:56.474Z,4.90
2022-12-03T23:19:58.541Z,4.90
2022-12-03T23:23:00.644Z,4.90
2022-12-03T23:26:07.856Z,4.90
2022-12-03T23:29:10.416Z,4.90
2022-12-03T23:32:12.539Z,5.00
2022-12-03T23:35:14.781Z,4.90
2022-12-03T23:38:17.265Z,4.90
2022-12-03T23:41:21.138Z,4.90
2022-12-03T23:44:23.218Z,4.90
2022-12-03T23:47:25.289Z,5.00
2022-12-03T23:50:28.305Z,5.00
2022-12-03T23:53:30.329Z,5.10
2022-12-03T23:56:32.514Z,5.10
2022-12-03T23:59:34.744Z,5.10
